Flight Track Log - Related Links

Times and Time Zones

All times are in EDT time to prevent confusion due to time zone crossing. See the THY2463 flight status page for this flight to view local times or setup timezone preferences in your user account.

Time Position Orientation Groundspeed Altitude Reporting Facility
EDT Latitude Longitude Course Direction KTS MPH feet Rate Location/Type
Wed 09:40:00 AM 37.4499 34.5876 311° West  Level Estimated
Wed 09:41:00 AM 37.5081 34.5004 310° West  Level Estimated
Wed 09:42:00 AM 37.5662 34.4131 310° West  Level Estimated
Wed 09:43:00 AM 37.6243 34.3256 310° West  Level Estimated
Wed 09:44:00 AM 37.6823 34.2380 310° West  Level Estimated
Wed 09:45:00 AM 37.7402 34.1503 310° West  Level Estimated
Wed 09:46:00 AM 37.7981 34.0624 310° West  Level Estimated
Wed 09:47:00 AM 37.8559 33.9744 310° West  Level Estimated
Wed 09:48:00 AM 37.9136 33.8862 310° West  Level Estimated
Wed 09:49:00 AM 37.9713 33.7979 310° West  Level Estimated
Wed 09:50:00 AM 38.0289 33.7095 310° West  Level Estimated
Wed 09:51:00 AM 38.0864 33.6209 310° West  Level Estimated
Wed 09:52:00 AM 38.1439 33.5322 309° West  Level Estimated
Wed 09:53:00 AM 38.2013 33.4433 309° West  Level Estimated
Wed 09:54:00 AM 38.2586 33.3543 309° West  Level Estimated
Wed 09:55:00 AM 38.3159 33.2652 309° West  Level Estimated
Wed 09:56:00 AM 38.3731 33.1759 309° West  Level Estimated
Wed 09:57:00 AM 38.4302 33.0865 309° West  Level Estimated
Wed 09:58:00 AM 38.4873 32.9969 309° West  Level Estimated
Wed 09:59:00 AM 38.5442 32.9072 309° West  Level Estimated
Wed 10:00:00 AM 38.6012 32.8174 309° West  Level Estimated
Wed 10:01:00 AM 38.6580 32.7274 309° West  Level Estimated
Wed 10:02:00 AM 38.7148 32.6372 309° West  Level Estimated
Wed 10:03:00 AM 38.7715 32.5470 309° West  Level Estimated
Wed 10:04:00 AM 38.8282 32.4566 309° West  Level Estimated
Wed 10:05:00 AM 38.8848 32.3660 309° West  Level Estimated
Wed 10:06:00 AM 38.9413 32.2753 309° West  Level Estimated
Wed 10:07:00 AM 38.9977 32.1844 309° West  Level Estimated
Wed 10:08:00 AM 39.0541 32.0935 309° West  Level Estimated
Wed 10:09:00 AM 39.1104 32.0023 309° West  Level Estimated
Wed 10:10:00 AM 39.1666 31.9110 308° West  Level Estimated
Wed 10:11:00 AM 39.2228 31.8196 308° West  Level Estimated
Wed 10:12:00 AM 39.2788 31.7280 308° West  Level Estimated
Wed 10:13:00 AM 39.3348 31.6363 308° West  Level Estimated
Wed 10:14:00 AM 39.3908 31.5444 308° West  Level Estimated
Wed 10:15:00 AM 39.4467 31.4524 308° West  Level Estimated
Wed 10:16:00 AM 39.5024 31.3603 308° West  Level Estimated
Wed 10:17:00 AM 39.5582 31.2679 308° West  Level Estimated
Wed 10:18:00 AM 39.6138 31.1755 308° West  Level Estimated
Wed 10:19:00 AM 39.6694 31.0829 308° West  Level Estimated
Wed 10:20:00 AM 39.7249 30.9901 308° West  Level Estimated
Wed 10:21:00 AM 39.7803 30.8972 308° West  Level Estimated
Wed 10:22:00 AM 39.8357 30.8041 308° West  Level Estimated
Wed 10:23:00 AM 39.8909 30.7109 308° West  Level Estimated
Wed 10:24:00 AM 39.9461 30.6176 308° West  Level Estimated
Wed 10:25:00 AM 40.0013 30.5241 308° West  Level Estimated
Wed 10:26:00 AM 40.0563 30.4304 308° West  Level Estimated
Wed 10:27:00 AM 40.1113 30.3366 307° West  Level Estimated
Wed 10:28:00 AM 40.1662 30.2426 307° West  Level Estimated
Wed 10:29:00 AM 40.2210 30.1485 307° West  Level Estimated
Wed 10:30:00 AM 40.2758 30.0542 307° West  Level Estimated
Wed 10:31:00 AM 40.3304 29.9598 307° West  Level Estimated
Wed 10:32:00 AM 40.3851 29.8652 307° West  Level Estimated
Wed 10:33:00 AM 40.4396 29.7705 307° West  Level Estimated
Wed 10:34:00 AM 40.4940 29.6756 307° West  Level Estimated
Wed 10:35:00 AM 40.5484 29.5806 307° West  Level Estimated
Wed 10:36:00 AM 40.6026 29.4854 307° West  Level Estimated
Wed 10:37:00 AM 40.6569 29.3901 307° West  Level Estimated
Wed 10:38:00 AM 40.7110 29.2946 307° West  Level Estimated
Wed 10:39:00 AM 40.7650 29.1989 307° West  Level Estimated
Wed 10:40:00 AM 40.8190 29.1031 307° West  Level Estimated
Wed 10:41:00 AM 40.8729 29.0072 307° West  Level Estimated
Wed 10:42:00 AM 40.9267 28.9110 307° West  Level Estimated
Wed 10:43:00 AM 40.9769 28.8211 306° West  Level Estimated
Wed 10:44:00 AM 40.9769 28.8211 21° North  Level Estimated
Wed 10:45:00 AM 40.9769 28.8211 21° North  Level Estimated
Wed 10:46:00 AM 40.9769 28.8211 21° North  Level Estimated
Wed 10:47:00 AM 40.9769 28.8211 21° North  Level Estimated
Wed 10:48:00 AM 40.9769 28.8211 21° North  Level Estimated
Wed 10:49:00 AM 40.9769 28.8211 21° North  Level Estimated
Wed 10:50:00 AM 40.9769 28.8211 21° North  Level Estimated
Wed 10:51:00 AM 40.9769 28.8211 21° North  Level Estimated
Wed 10:52:00 AM 40.9769 28.8211 21° North  Level Estimated
Wed 10:53:00 AM 40.9769 28.8211 21° North  Level Estimated
Wed 10:54:00 AM 40.9769 28.8211 21° North  Level Estimated
Wed 10:55:00 AM 40.9769 28.8211 21° North  Level Estimated
Wed 10:56:00 AM 40.9769 28.8211 21° North  Level Estimated
Wed 10:57:00 AM 40.9769 28.8211 21° North  Level Estimated
Wed 10:58:00 AM 40.9769 28.8211 21° North  Level Estimated
Wed 10:59:00 AM 40.9769 28.8211 21° North  Level Estimated

Login

Don't have an account? Register now (free) for customized features, flight alerts, and more!